sensor_id;sensor_type;location;lat;lon;timestamp;temperature;humidity
6252;DHT22;3159;52.414;9.784;2024-01-30T00:00:38;7.70;99.90
6252;DHT22;3159;52.414;9.784;2024-01-30T00:03:05;7.80;99.90
6252;DHT22;3159;52.414;9.784;2024-01-30T00:05:32;7.70;99.90
6252;DHT22;3159;52.414;9.784;2024-01-30T00:08:00;7.80;99.90
6252;DHT22;3159;52.414;9.784;2024-01-30T00:10:27;7.70;99.90
6252;DHT22;3159;52.414;9.784;2024-01-30T00:12:53;7.80;99.90
6252;DHT22;3159;52.414;9.784;2024-01-30T00:15:20;7.70;99.90
6252;DHT22;3159;52.414;9.784;2024-01-30T00:17:47;7.70;99.90
6252;DHT22;3159;52.414;9.784;2024-01-30T00:20:14;7.70;99.90
6252;DHT22;3159;52.414;9.784;2024-01-30T00:22:41;7.80;99.90
6252;DHT22;3159;52.414;9.784;2024-01-30T00:25:09;7.70;99.90
6252;DHT22;3159;52.414;9.784;2024-01-30T00:27:36;7.80;99.90
6252;DHT22;3159;52.414;9.784;2024-01-30T00:30:04;7.70;99.90
6252;DHT22;3159;52.414;9.784;2024-01-30T00:32:31;7.70;99.90
6252;DHT22;3159;52.414;9.784;2024-01-30T00:34:57;7.70;99.90
6252;DHT22;3159;52.414;9.784;2024-01-30T00:37:24;7.60;99.90
6252;DHT22;3159;52.414;9.784;2024-01-30T00:39:51;7.60;99.90
6252;DHT22;3159;52.414;9.784;2024-01-30T00:42:19;7.70;99.90
6252;DHT22;3159;52.414;9.784;2024-01-30T00:44:46;7.70;99.90
6252;DHT22;3159;52.414;9.784;2024-01-30T00:47:13;7.70;99.90
6252;DHT22;3159;52.414;9.784;2024-01-30T00:49:40;7.90;99.90
6252;DHT22;3159;52.414;9.784;2024-01-30T00:52:07;8.00;99.90
6252;DHT22;3159;52.414;9.784;2024-01-30T00:54:34;8.00;99.90
6252;DHT22;3159;52.414;9.784;2024-01-30T00:57:00;7.90;99.90
6252;DHT22;3159;52.414;9.784;2024-01-30T00:59:29;7.80;99.90
6252;DHT22;3159;52.414;9.784;2024-01-30T01:01:55;7.80;99.90
6252;DHT22;3159;52.414;9.784;2024-01-30T01:04:22;7.80;99.90
6252;DHT22;3159;52.414;9.784;2024-01-30T01:06:49;7.70;99.90
6252;DHT22;3159;52.414;9.784;2024-01-30T01:09:16;7.70;99.90
6252;DHT22;3159;52.414;9.784;2024-01-30T01:11:43;7.70;99.90
6252;DHT22;3159;52.414;9.784;2024-01-30T01:14:09;7.60;99.90
6252;DHT22;3159;52.414;9.784;2024-01-30T01:16:38;7.50;99.90
6252;DHT22;3159;52.414;9.784;2024-01-30T01:19:04;7.50;99.90
6252;DHT22;3159;52.414;9.784;2024-01-30T01:21:31;7.60;99.90
6252;DHT22;3159;52.414;9.784;2024-01-30T01:23:58;7.50;99.90
6252;DHT22;3159;52.414;9.784;2024-01-30T01:26:25;7.60;99.90
6252;DHT22;3159;52.414;9.784;2024-01-30T01:28:52;7.80;99.90
6252;DHT22;3159;52.414;9.784;2024-01-30T01:31:18;7.70;99.90
6252;DHT22;3159;52.414;9.784;2024-01-30T01:33:49;7.70;99.90
6252;DHT22;3159;52.414;9.784;2024-01-30T01:36:16;7.80;99.90
6252;DHT22;3159;52.414;9.784;2024-01-30T01:38:43;7.70;99.90
6252;DHT22;3159;52.414;9.784;2024-01-30T01:41:10;7.50;99.90
6252;DHT22;3159;52.414;9.784;2024-01-30T01:43:36;7.60;99.90
6252;DHT22;3159;52.414;9.784;2024-01-30T01:46:04;7.40;99.90
6252;DHT22;3159;52.414;9.784;2024-01-30T01:48:32;7.40;99.90
6252;DHT22;3159;52.414;9.784;2024-01-30T01:51:00;7.40;99.90
6252;DHT22;3159;52.414;9.784;2024-01-30T01:53:27;7.40;99.90
6252;DHT22;3159;52.414;9.784;2024-01-30T01:55:54;7.30;99.90
6252;DHT22;3159;52.414;9.784;2024-01-30T01:58:22;7.40;99.90
6252;DHT22;3159;52.414;9.784;2024-01-30T02:00:50;7.50;99.90
6252;DHT22;3159;52.414;9.784;2024-01-30T02:03:18;7.50;99.90
6252;DHT22;3159;52.414;9.784;2024-01-30T02:05:47;7.40;99.90
6252;DHT22;3159;52.414;9.784;2024-01-30T02:08:15;7.30;99.90
6252;DHT22;3159;52.414;9.784;2024-01-30T02:10:42;7.10;99.90
6252;DHT22;3159;52.414;9.784;2024-01-30T02:13:09;7.10;99.90
6252;DHT22;3159;52.414;9.784;2024-01-30T02:15:36;7.10;99.90
6252;DHT22;3159;52.414;9.784;2024-01-30T02:18:02;7.30;99.90
6252;DHT22;3159;52.414;9.784;2024-01-30T02:20:30;7.30;99.90
6252;DHT22;3159;52.414;9.784;2024-01-30T02:23:01;7.40;99.90
6252;DHT22;3159;52.414;9.784;2024-01-30T02:25:32;7.40;99.90
6252;DHT22;3159;52.414;9.784;2024-01-30T02:27:59;7.40;99.90
6252;DHT22;3159;52.414;9.784;2024-01-30T02:30:26;7.30;99.90
6252;DHT22;3159;52.414;9.784;2024-01-30T02:32:53;7.30;99.90
6252;DHT22;3159;52.414;9.784;2024-01-30T02:35:20;7.40;99.90
6252;DHT22;3159;52.414;9.784;2024-01-30T02:37:46;7.50;99.90
6252;DHT22;3159;52.414;9.784;2024-01-30T02:40:15;7.40;99.90
6252;DHT22;3159;52.414;9.784;2024-01-30T02:42:41;7.30;99.90
6252;DHT22;3159;52.414;9.784;2024-01-30T02:45:10;7.40;99.90
6252;DHT22;3159;52.414;9.784;2024-01-30T02:47:38;7.50;99.90
6252;DHT22;3159;52.414;9.784;2024-01-30T02:50:05;7.60;99.90
6252;DHT22;3159;52.414;9.784;2024-01-30T02:52:33;7.70;99.90
6252;DHT22;3159;52.414;9.784;2024-01-30T02:55:00;7.70;99.90
6252;DHT22;3159;52.414;9.784;2024-01-30T02:57:28;7.80;99.90
6252;DHT22;3159;52.414;9.784;2024-01-30T02:59:55;7.80;99.90
6252;DHT22;3159;52.414;9.784;2024-01-30T03:02:22;7.70;99.90
6252;DHT22;3159;52.414;9.784;2024-01-30T03:04:49;7.60;99.90
6252;DHT22;3159;52.414;9.784;2024-01-30T03:07:15;7.60;99.90
6252;DHT22;3159;52.414;9.784;2024-01-30T03:09:42;7.60;99.90
6252;DHT22;3159;52.414;9.784;2024-01-30T03:12:09;7.50;99.90
6252;DHT22;3159;52.414;9.784;2024-01-30T03:14:38;7.60;99.90
6252;DHT22;3159;52.414;9.784;2024-01-30T03:17:05;7.60;99.90
6252;DHT22;3159;52.414;9.784;2024-01-30T03:19:31;7.60;99.90
6252;DHT22;3159;52.414;9.784;2024-01-30T03:21:58;7.40;99.90
6252;DHT22;3159;52.414;9.784;2024-01-30T03:24:25;7.30;99.90
6252;DHT22;3159;52.414;9.784;2024-01-30T03:26:53;7.40;99.90
6252;DHT22;3159;52.414;9.784;2024-01-30T03:29:20;7.50;99.90
6252;DHT22;3159;52.414;9.784;2024-01-30T03:31:48;7.40;99.90
6252;DHT22;3159;52.414;9.784;2024-01-30T03:34:15;7.40;99.90
6252;DHT22;3159;52.414;9.784;2024-01-30T03:36:42;7.50;99.90
6252;DHT22;3159;52.414;9.784;2024-01-30T03:39:09;7.50;99.90
6252;DHT22;3159;52.414;9.784;2024-01-30T03:41:35;7.70;99.90
6252;DHT22;3159;52.414;9.784;2024-01-30T03:44:03;7.50;99.90
6252;DHT22;3159;52.414;9.784;2024-01-30T03:46:29;7.60;99.90
6252;DHT22;3159;52.414;9.784;2024-01-30T03:48:57;7.70;99.90
6252;DHT22;3159;52.414;9.784;2024-01-30T03:51:24;7.60;99.90
6252;DHT22;3159;52.414;9.784;2024-01-30T03:53:51;7.60;99.90
6252;DHT22;3159;52.414;9.784;2024-01-30T03:56:18;7.60;99.90
6252;DHT22;3159;52.414;9.784;2024-01-30T03:58:45;7.60;99.90
6252;DHT22;3159;52.414;9.784;2024-01-30T04:01:13;7.50;99.90
6252;DHT22;3159;52.414;9.784;2024-01-30T04:03:40;7.70;99.90
6252;DHT22;3159;52.414;9.784;2024-01-30T04:06:09;7.80;99.90
6252;DHT22;3159;52.414;9.784;2024-01-30T04:08:36;7.60;99.90
6252;DHT22;3159;52.414;9.784;2024-01-30T04:11:04;7.60;99.90
6252;DHT22;3159;52.414;9.784;2024-01-30T04:13:32;7.60;99.90
6252;DHT22;3159;52.414;9.784;2024-01-30T04:15:59;7.60;99.90
6252;DHT22;3159;52.414;9.784;2024-01-30T04:18:27;7.70;99.90
6252;DHT22;3159;52.414;9.784;2024-01-30T04:20:54;7.60;99.90
6252;DHT22;3159;52.414;9.784;2024-01-30T04:23:23;7.50;99.90
6252;DHT22;3159;52.414;9.784;2024-01-30T04:25:49;7.50;99.90
6252;DHT22;3159;52.414;9.784;2024-01-30T04:28:16;7.60;99.90
6252;DHT22;3159;52.414;9.784;2024-01-30T04:30:43;7.50;99.90
6252;DHT22;3159;52.414;9.784;2024-01-30T04:33:10;7.60;99.90
6252;DHT22;3159;52.414;9.784;2024-01-30T04:35:37;7.70;99.90
6252;DHT22;3159;52.414;9.784;2024-01-30T04:38:04;7.60;99.90
6252;DHT22;3159;52.414;9.784;2024-01-30T04:40:32;7.70;99.90
6252;DHT22;3159;52.414;9.784;2024-01-30T04:42:59;7.60;99.90
6252;DHT22;3159;52.414;9.784;2024-01-30T04:45:26;7.50;99.90
6252;DHT22;3159;52.414;9.784;2024-01-30T04:47:53;7.60;99.90
6252;DHT22;3159;52.414;9.784;2024-01-30T04:50:20;7.60;99.90
6252;DHT22;3159;52.414;9.784;2024-01-30T04:52:46;7.60;99.90
6252;DHT22;3159;52.414;9.784;2024-01-30T04:55:13;7.70;99.90
6252;DHT22;3159;52.414;9.784;2024-01-30T04:57:42;7.60;99.90
6252;DHT22;3159;52.414;9.784;2024-01-30T05:00:09;7.50;99.90
6252;DHT22;3159;52.414;9.784;2024-01-30T05:02:36;7.40;99.90
6252;DHT22;3159;52.414;9.784;2024-01-30T05:05:04;7.40;99.90
6252;DHT22;3159;52.414;9.784;2024-01-30T05:07:30;7.30;99.90
6252;DHT22;3159;52.414;9.784;2024-01-30T05:09:57;7.30;99.90
6252;DHT22;3159;52.414;9.784;2024-01-30T05:12:24;7.30;99.90
6252;DHT22;3159;52.414;9.784;2024-01-30T05:14:52;7.30;99.90
6252;DHT22;3159;52.414;9.784;2024-01-30T05:17:19;7.30;99.90
6252;DHT22;3159;52.414;9.784;2024-01-30T05:19:46;7.10;99.90
6252;DHT22;3159;52.414;9.784;2024-01-30T05:22:13;7.10;99.90
6252;DHT22;3159;52.414;9.784;2024-01-30T05:24:41;7.10;99.90
6252;DHT22;3159;52.414;9.784;2024-01-30T05:27:08;7.20;99.90
6252;DHT22;3159;52.414;9.784;2024-01-30T05:29:35;7.10;99.90
6252;DHT22;3159;52.414;9.784;2024-01-30T05:32:04;7.10;99.90
6252;DHT22;3159;52.414;9.784;2024-01-30T05:34:31;7.00;99.90
6252;DHT22;3159;52.414;9.784;2024-01-30T05:36:58;7.10;99.90
6252;DHT22;3159;52.414;9.784;2024-01-30T05:39:25;7.20;99.90
6252;DHT22;3159;52.414;9.784;2024-01-30T05:41:52;7.20;99.90
6252;DHT22;3159;52.414;9.784;2024-01-30T05:44:19;6.90;99.90
6252;DHT22;3159;52.414;9.784;2024-01-30T05:46:45;7.00;99.90
6252;DHT22;3159;52.414;9.784;2024-01-30T05:49:14;6.80;99.90
6252;DHT22;3159;52.414;9.784;2024-01-30T05:51:40;6.90;99.90
6252;DHT22;3159;52.414;9.784;2024-01-30T05:54:07;6.90;99.90
6252;DHT22;3159;52.414;9.784;2024-01-30T05:56:34;6.90;99.90
6252;DHT22;3159;52.414;9.784;2024-01-30T05:59:01;6.90;99.90
6252;DHT22;3159;52.414;9.784;2024-01-30T06:01:28;7.00;99.90
6252;DHT22;3159;52.414;9.784;2024-01-30T06:03:55;7.10;99.90
6252;DHT22;3159;52.414;9.784;2024-01-30T06:06:23;7.00;99.90
6252;DHT22;3159;52.414;9.784;2024-01-30T06:08:50;6.90;99.90
6252;DHT22;3159;52.414;9.784;2024-01-30T06:11:17;7.00;99.90
6252;DHT22;3159;52.414;9.784;2024-01-30T06:13:44;6.90;99.90
6252;DHT22;3159;52.414;9.784;2024-01-30T06:16:11;6.80;99.90
6252;DHT22;3159;52.414;9.784;2024-01-30T06:18:38;6.90;99.90
6252;DHT22;3159;52.414;9.784;2024-01-30T06:21:05;6.90;99.90
6252;DHT22;3159;52.414;9.784;2024-01-30T06:23:33;7.00;99.90
6252;DHT22;3159;52.414;9.784;2024-01-30T06:26:00;7.00;99.90
6252;DHT22;3159;52.414;9.784;2024-01-30T06:28:27;7.10;99.90
6252;DHT22;3159;52.414;9.784;2024-01-30T06:30:54;7.00;99.90
6252;DHT22;3159;52.414;9.784;2024-01-30T06:33:21;6.80;99.90
6252;DHT22;3159;52.414;9.784;2024-01-30T06:35:48;6.80;99.90
6252;DHT22;3159;52.414;9.784;2024-01-30T06:38:14;6.90;99.90
6252;DHT22;3159;52.414;9.784;2024-01-30T06:40:43;6.90;99.90
6252;DHT22;3159;52.414;9.784;2024-01-30T06:43:10;6.80;99.90
6252;DHT22;3159;52.414;9.784;2024-01-30T06:45:37;6.90;99.90
6252;DHT22;3159;52.414;9.784;2024-01-30T06:48:04;6.80;99.90
6252;DHT22;3159;52.414;9.784;2024-01-30T06:50:31;6.80;99.90
6252;DHT22;3159;52.414;9.784;2024-01-30T06:52:58;6.80;99.90
6252;DHT22;3159;52.414;9.784;2024-01-30T06:55:25;6.80;99.90
6252;DHT22;3159;52.414;9.784;2024-01-30T06:57:53;6.90;99.90
6252;DHT22;3159;52.414;9.784;2024-01-30T07:00:20;6.90;99.90
6252;DHT22;3159;52.414;9.784;2024-01-30T07:02:48;6.90;99.90
6252;DHT22;3159;52.414;9.784;2024-01-30T07:05:15;7.00;99.90
6252;DHT22;3159;52.414;9.784;2024-01-30T07:07:43;7.10;99.90
6252;DHT22;3159;52.414;9.784;2024-01-30T07:10:09;7.00;99.90
6252;DHT22;3159;52.414;9.784;2024-01-30T07:12:36;7.10;99.90
6252;DHT22;3159;52.414;9.784;2024-01-30T07:15:05;7.00;99.90
6252;DHT22;3159;52.414;9.784;2024-01-30T07:17:33;7.00;99.90
6252;DHT22;3159;52.414;9.784;2024-01-30T07:20:00;6.90;99.90
6252;DHT22;3159;52.414;9.784;2024-01-30T07:22:29;6.80;99.90
6252;DHT22;3159;52.414;9.784;2024-01-30T07:24:55;6.80;99.90
6252;DHT22;3159;52.414;9.784;2024-01-30T07:27:22;6.90;99.90
6252;DHT22;3159;52.414;9.784;2024-01-30T07:29:49;7.00;99.90
6252;DHT22;3159;52.414;9.784;2024-01-30T07:32:17;6.90;99.90
6252;DHT22;3159;52.414;9.784;2024-01-30T07:34:45;6.70;99.90
6252;DHT22;3159;52.414;9.784;2024-01-30T07:37:12;6.80;99.90
6252;DHT22;3159;52.414;9.784;2024-01-30T07:39:41;7.00;99.90
6252;DHT22;3159;52.414;9.784;2024-01-30T07:42:08;7.00;99.90
6252;DHT22;3159;52.414;9.784;2024-01-30T07:44:35;7.00;99.90
6252;DHT22;3159;52.414;9.784;2024-01-30T07:47:02;7.10;99.90
6252;DHT22;3159;52.414;9.784;2024-01-30T07:49:31;7.10;99.90
6252;DHT22;3159;52.414;9.784;2024-01-30T07:52:01;7.00;99.90
6252;DHT22;3159;52.414;9.784;2024-01-30T07:54:30;7.00;99.90
6252;DHT22;3159;52.414;9.784;2024-01-30T07:56:59;7.00;99.90
6252;DHT22;3159;52.414;9.784;2024-01-30T07:59:25;7.00;99.90
6252;DHT22;3159;52.414;9.784;2024-01-30T08:01:52;7.00;99.90
6252;DHT22;3159;52.414;9.784;2024-01-30T08:04:19;7.00;99.90
6252;DHT22;3159;52.414;9.784;2024-01-30T08:06:48;7.20;99.90
6252;DHT22;3159;52.414;9.784;2024-01-30T08:09:15;7.10;99.90
6252;DHT22;3159;52.414;9.784;2024-01-30T08:11:41;7.10;99.90
6252;DHT22;3159;52.414;9.784;2024-01-30T08:14:08;7.00;99.90
6252;DHT22;3159;52.414;9.784;2024-01-30T08:16:35;7.00;99.90
6252;DHT22;3159;52.414;9.784;2024-01-30T08:19:03;7.10;99.90
6252;DHT22;3159;52.414;9.784;2024-01-30T08:21:30;7.20;99.90
6252;DHT22;3159;52.414;9.784;2024-01-30T08:24:03;7.30;99.90
6252;DHT22;3159;52.414;9.784;2024-01-30T08:26:30;7.20;99.90
6252;DHT22;3159;52.414;9.784;2024-01-30T08:28:56;7.20;99.90
6252;DHT22;3159;52.414;9.784;2024-01-30T08:31:23;7.30;99.90
6252;DHT22;3159;52.414;9.784;2024-01-30T08:33:50;7.30;99.90
6252;DHT22;3159;52.414;9.784;2024-01-30T08:36:17;7.30;99.90
6252;DHT22;3159;52.414;9.784;2024-01-30T08:38:44;7.30;99.90
6252;DHT22;3159;52.414;9.784;2024-01-30T08:41:13;7.30;99.90
6252;DHT22;3159;52.414;9.784;2024-01-30T08:43:40;7.40;99.90
6252;DHT22;3159;52.414;9.784;2024-01-30T08:46:07;7.50;99.90
6252;DHT22;3159;52.414;9.784;2024-01-30T08:48:33;7.60;99.90
6252;DHT22;3159;52.414;9.784;2024-01-30T08:51:02;7.80;99.90
6252;DHT22;3159;52.414;9.784;2024-01-30T08:53:29;7.70;99.90
6252;DHT22;3159;52.414;9.784;2024-01-30T08:55:56;7.70;99.90
6252;DHT22;3159;52.414;9.784;2024-01-30T08:58:25;7.80;99.90
6252;DHT22;3159;52.414;9.784;2024-01-30T09:00:52;7.80;99.90
6252;DHT22;3159;52.414;9.784;2024-01-30T09:03:19;7.70;99.90
6252;DHT22;3159;52.414;9.784;2024-01-30T09:05:46;7.70;99.90
6252;DHT22;3159;52.414;9.784;2024-01-30T09:08:13;7.80;99.90
6252;DHT22;3159;52.414;9.784;2024-01-30T09:10:40;7.90;99.90
6252;DHT22;3159;52.414;9.784;2024-01-30T09:13:07;7.80;99.90
6252;DHT22;3159;52.414;9.784;2024-01-30T09:15:35;7.90;99.90
6252;DHT22;3159;52.414;9.784;2024-01-30T09:18:02;8.00;99.90
6252;DHT22;3159;52.414;9.784;2024-01-30T09:20:29;8.00;99.90
6252;DHT22;3159;52.414;9.784;2024-01-30T09:22:56;8.00;99.90
6252;DHT22;3159;52.414;9.784;2024-01-30T09:25:23;8.10;99.90
6252;DHT22;3159;52.414;9.784;2024-01-30T09:27:50;8.20;99.90
6252;DHT22;3159;52.414;9.784;2024-01-30T09:30:17;8.40;99.90
6252;DHT22;3159;52.414;9.784;2024-01-30T09:32:45;8.50;99.90
6252;DHT22;3159;52.414;9.784;2024-01-30T09:35:12;8.50;99.90
6252;DHT22;3159;52.414;9.784;2024-01-30T09:37:39;8.50;99.90
6252;DHT22;3159;52.414;9.784;2024-01-30T09:40:07;8.50;99.90
6252;DHT22;3159;52.414;9.784;2024-01-30T09:42:35;8.40;99.90
6252;DHT22;3159;52.414;9.784;2024-01-30T09:45:02;8.70;99.90
6252;DHT22;3159;52.414;9.784;2024-01-30T09:47:31;8.90;99.90
6252;DHT22;3159;52.414;9.784;2024-01-30T09:50:01;8.90;99.90
6252;DHT22;3159;52.414;9.784;2024-01-30T09:52:31;9.00;99.90
6252;DHT22;3159;52.414;9.784;2024-01-30T09:54:59;9.10;99.90
6252;DHT22;3159;52.414;9.784;2024-01-30T09:57:26;9.10;99.90
6252;DHT22;3159;52.414;9.784;2024-01-30T09:59:53;8.90;99.90
6252;DHT22;3159;52.414;9.784;2024-01-30T10:02:20;8.90;99.90
6252;DHT22;3159;52.414;9.784;2024-01-30T10:04:48;8.80;99.90
6252;DHT22;3159;52.414;9.784;2024-01-30T10:07:17;8.70;99.90
6252;DHT22;3159;52.414;9.784;2024-01-30T10:09:44;8.80;99.90
6252;DHT22;3159;52.414;9.784;2024-01-30T10:12:11;8.90;99.90
6252;DHT22;3159;52.414;9.784;2024-01-30T10:14:38;9.10;99.90
6252;DHT22;3159;52.414;9.784;2024-01-30T10:17:06;9.10;99.90
6252;DHT22;3159;52.414;9.784;2024-01-30T10:19:33;9.30;99.90
6252;DHT22;3159;52.414;9.784;2024-01-30T10:22:01;9.20;99.90
6252;DHT22;3159;52.414;9.784;2024-01-30T10:24:29;9.30;99.90
6252;DHT22;3159;52.414;9.784;2024-01-30T10:26:56;9.40;99.90
6252;DHT22;3159;52.414;9.784;2024-01-30T10:29:24;9.30;99.90
6252;DHT22;3159;52.414;9.784;2024-01-30T10:31:58;9.40;99.90
6252;DHT22;3159;52.414;9.784;2024-01-30T10:34:25;9.40;99.90
6252;DHT22;3159;52.414;9.784;2024-01-30T10:36:59;9.60;99.90
6252;DHT22;3159;52.414;9.784;2024-01-30T10:39:29;9.70;99.90
6252;DHT22;3159;52.414;9.784;2024-01-30T10:42:02;9.60;99.90
6252;DHT22;3159;52.414;9.784;2024-01-30T10:44:36;9.60;99.90
6252;DHT22;3159;52.414;9.784;2024-01-30T10:47:06;9.60;99.90
6252;DHT22;3159;52.414;9.784;2024-01-30T10:49:37;9.40;99.90
6252;DHT22;3159;52.414;9.784;2024-01-30T10:52:05;9.50;99.90
6252;DHT22;3159;52.414;9.784;2024-01-30T10:54:34;9.60;99.90
6252;DHT22;3159;52.414;9.784;2024-01-30T10:57:01;9.70;99.90
6252;DHT22;3159;52.414;9.784;2024-01-30T10:59:30;9.80;99.90
6252;DHT22;3159;52.414;9.784;2024-01-30T11:01:58;9.80;99.90
6252;DHT22;3159;52.414;9.784;2024-01-30T11:04:25;9.70;99.90
6252;DHT22;3159;52.414;9.784;2024-01-30T11:06:52;9.60;99.90
6252;DHT22;3159;52.414;9.784;2024-01-30T11:09:19;9.70;99.90
6252;DHT22;3159;52.414;9.784;2024-01-30T11:11:52;9.80;99.90
6252;DHT22;3159;52.414;9.784;2024-01-30T11:14:25;9.90;99.90
6252;DHT22;3159;52.414;9.784;2024-01-30T11:16:52;9.80;99.90
6252;DHT22;3159;52.414;9.784;2024-01-30T11:19:23;9.70;99.90
6252;DHT22;3159;52.414;9.784;2024-01-30T11:21:51;9.80;99.90
6252;DHT22;3159;52.414;9.784;2024-01-30T11:24:19;9.60;99.90
6252;DHT22;3159;52.414;9.784;2024-01-30T11:26:48;9.60;99.90
6252;DHT22;3159;52.414;9.784;2024-01-30T11:29:17;9.50;99.90
6252;DHT22;3159;52.414;9.784;2024-01-30T11:31:54;9.80;99.90
6252;DHT22;3159;52.414;9.784;2024-01-30T11:34:21;9.60;99.90
6252;DHT22;3159;52.414;9.784;2024-01-30T11:36:52;9.80;99.90
6252;DHT22;3159;52.414;9.784;2024-01-30T11:39:20;9.80;99.90
6252;DHT22;3159;52.414;9.784;2024-01-30T11:41:49;9.80;99.90
6252;DHT22;3159;52.414;9.784;2024-01-30T11:44:18;9.80;99.90
6252;DHT22;3159;52.414;9.784;2024-01-30T11:46:46;9.80;99.90
6252;DHT22;3159;52.414;9.784;2024-01-30T11:49:13;9.90;99.90
6252;DHT22;3159;52.414;9.784;2024-01-30T11:51:40;9.90;99.90
6252;DHT22;3159;52.414;9.784;2024-01-30T11:54:08;9.80;99.90
6252;DHT22;3159;52.414;9.784;2024-01-30T11:56:34;9.90;99.90
6252;DHT22;3159;52.414;9.784;2024-01-30T11:59:03;9.90;99.90
6252;DHT22;3159;52.414;9.784;2024-01-30T12:01:31;10.00;99.90
6252;DHT22;3159;52.414;9.784;2024-01-30T12:03:58;10.00;99.90
6252;DHT22;3159;52.414;9.784;2024-01-30T12:06:25;10.10;99.90
6252;DHT22;3159;52.414;9.784;2024-01-30T12:08:57;10.20;99.90
6252;DHT22;3159;52.414;9.784;2024-01-30T12:11:24;10.10;99.90
6252;DHT22;3159;52.414;9.784;2024-01-30T12:13:52;10.30;99.90
6252;DHT22;3159;52.414;9.784;2024-01-30T12:16:20;10.20;99.90
6252;DHT22;3159;52.414;9.784;2024-01-30T12:18:48;10.30;99.90
6252;DHT22;3159;52.414;9.784;2024-01-30T12:21:16;10.10;99.90
6252;DHT22;3159;52.414;9.784;2024-01-30T12:23:45;10.50;99.90
6252;DHT22;3159;52.414;9.784;2024-01-30T12:26:12;10.70;99.90
6252;DHT22;3159;52.414;9.784;2024-01-30T12:28:48;10.70;99.90
6252;DHT22;3159;52.414;9.784;2024-01-30T12:31:15;10.90;99.90
6252;DHT22;3159;52.414;9.784;2024-01-30T12:33:42;10.90;99.90
6252;DHT22;3159;52.414;9.784;2024-01-30T12:36:11;10.90;99.90
6252;DHT22;3159;52.414;9.784;2024-01-30T12:38:38;11.00;99.90
6252;DHT22;3159;52.414;9.784;2024-01-30T12:41:07;11.00;99.90
6252;DHT22;3159;52.414;9.784;2024-01-30T12:43:34;11.10;99.90
6252;DHT22;3159;52.414;9.784;2024-01-30T12:46:02;11.10;99.90
6252;DHT22;3159;52.414;9.784;2024-01-30T12:48:29;11.10;99.90
6252;DHT22;3159;52.414;9.784;2024-01-30T12:50:56;11.20;99.90
6252;DHT22;3159;52.414;9.784;2024-01-30T12:53:24;11.20;99.90
6252;DHT22;3159;52.414;9.784;2024-01-30T12:55:51;11.30;99.90
6252;DHT22;3159;52.414;9.784;2024-01-30T12:58:19;11.20;99.90
6252;DHT22;3159;52.414;9.784;2024-01-30T13:00:46;11.30;99.90
6252;DHT22;3159;52.414;9.784;2024-01-30T13:03:13;11.40;99.90
6252;DHT22;3159;52.414;9.784;2024-01-30T13:05:40;11.40;99.90
6252;DHT22;3159;52.414;9.784;2024-01-30T13:08:07;11.30;99.90
6252;DHT22;3159;52.414;9.784;2024-01-30T13:10:35;11.20;99.90
6252;DHT22;3159;52.414;9.784;2024-01-30T13:13:02;11.40;99.90
6252;DHT22;3159;52.414;9.784;2024-01-30T13:15:29;11.30;99.90
6252;DHT22;3159;52.414;9.784;2024-01-30T13:17:56;11.40;99.90
6252;DHT22;3159;52.414;9.784;2024-01-30T13:20:23;11.40;99.90
6252;DHT22;3159;52.414;9.784;2024-01-30T13:22:50;11.50;99.90
6252;DHT22;3159;52.414;9.784;2024-01-30T13:25:17;11.50;99.90
6252;DHT22;3159;52.414;9.784;2024-01-30T13:27:45;11.50;99.90
6252;DHT22;3159;52.414;9.784;2024-01-30T13:30:12;11.50;99.90
6252;DHT22;3159;52.414;9.784;2024-01-30T13:32:39;11.50;99.90
6252;DHT22;3159;52.414;9.784;2024-01-30T13:35:09;11.50;99.90
6252;DHT22;3159;52.414;9.784;2024-01-30T13:37:36;11.50;99.90
6252;DHT22;3159;52.414;9.784;2024-01-30T13:40:05;11.40;99.90
6252;DHT22;3159;52.414;9.784;2024-01-30T13:42:34;11.40;99.90
6252;DHT22;3159;52.414;9.784;2024-01-30T13:45:03;11.30;99.90
6252;DHT22;3159;52.414;9.784;2024-01-30T13:47:30;11.30;99.90
6252;DHT22;3159;52.414;9.784;2024-01-30T13:49:57;11.40;99.90
6252;DHT22;3159;52.414;9.784;2024-01-30T13:52:23;11.40;99.90
6252;DHT22;3159;52.414;9.784;2024-01-30T13:54:50;11.40;99.90
6252;DHT22;3159;52.414;9.784;2024-01-30T13:57:17;11.30;99.90
6252;DHT22;3159;52.414;9.784;2024-01-30T13:59:44;11.40;99.90
6252;DHT22;3159;52.414;9.784;2024-01-30T14:02:12;11.50;99.90
6252;DHT22;3159;52.414;9.784;2024-01-30T14:04:39;11.50;99.90
6252;DHT22;3159;52.414;9.784;2024-01-30T14:07:06;11.60;99.90
6252;DHT22;3159;52.414;9.784;2024-01-30T14:09:33;11.60;99.90
6252;DHT22;3159;52.414;9.784;2024-01-30T14:12:00;11.60;99.90
6252;DHT22;3159;52.414;9.784;2024-01-30T14:14:26;11.50;99.90
6252;DHT22;3159;52.414;9.784;2024-01-30T14:16:53;11.50;99.90
6252;DHT22;3159;52.414;9.784;2024-01-30T14:19:22;11.50;99.90
6252;DHT22;3159;52.414;9.784;2024-01-30T14:21:48;11.50;99.90
6252;DHT22;3159;52.414;9.784;2024-01-30T14:24:15;11.50;99.90
6252;DHT22;3159;52.414;9.784;2024-01-30T14:26:42;11.50;99.90
6252;DHT22;3159;52.414;9.784;2024-01-30T14:29:09;11.40;99.90
6252;DHT22;3159;52.414;9.784;2024-01-30T14:31:36;11.40;99.90
6252;DHT22;3159;52.414;9.784;2024-01-30T14:34:03;11.30;99.90
6252;DHT22;3159;52.414;9.784;2024-01-30T14:36:31;11.40;99.90
6252;DHT22;3159;52.414;9.784;2024-01-30T14:38:58;11.40;99.90
6252;DHT22;3159;52.414;9.784;2024-01-30T14:41:25;11.40;99.90
6252;DHT22;3159;52.414;9.784;2024-01-30T14:43:52;11.40;99.90
6252;DHT22;3159;52.414;9.784;2024-01-30T14:46:19;11.30;99.90
6252;DHT22;3159;52.414;9.784;2024-01-30T14:48:46;11.40;99.90
6252;DHT22;3159;52.414;9.784;2024-01-30T14:51:13;11.30;99.90
6252;DHT22;3159;52.414;9.784;2024-01-30T14:53:42;11.30;99.90
6252;DHT22;3159;52.414;9.784;2024-01-30T14:56:10;11.30;99.90
6252;DHT22;3159;52.414;9.784;2024-01-30T14:58:37;11.40;99.90
6252;DHT22;3159;52.414;9.784;2024-01-30T15:01:04;11.40;99.90
6252;DHT22;3159;52.414;9.784;2024-01-30T15:03:31;11.30;99.90
6252;DHT22;3159;52.414;9.784;2024-01-30T15:05:58;11.30;99.90
6252;DHT22;3159;52.414;9.784;2024-01-30T15:08:25;11.20;99.90
6252;DHT22;3159;52.414;9.784;2024-01-30T15:10:53;11.30;99.90
6252;DHT22;3159;52.414;9.784;2024-01-30T15:13:20;11.30;99.90
6252;DHT22;3159;52.414;9.784;2024-01-30T15:15:46;11.20;99.90
6252;DHT22;3159;52.414;9.784;2024-01-30T15:18:13;11.10;99.90
6252;DHT22;3159;52.414;9.784;2024-01-30T15:20:40;11.20;99.90
6252;DHT22;3159;52.414;9.784;2024-01-30T15:23:07;11.10;99.90
6252;DHT22;3159;52.414;9.784;2024-01-30T15:25:34;11.10;99.90
6252;DHT22;3159;52.414;9.784;2024-01-30T15:28:03;11.20;99.90
6252;DHT22;3159;52.414;9.784;2024-01-30T15:30:29;11.10;99.90
6252;DHT22;3159;52.414;9.784;2024-01-30T15:32:56;11.20;99.90
6252;DHT22;3159;52.414;9.784;2024-01-30T15:35:24;11.20;99.90
6252;DHT22;3159;52.414;9.784;2024-01-30T15:37:51;11.20;99.90
6252;DHT22;3159;52.414;9.784;2024-01-30T15:40:18;11.30;99.90
6252;DHT22;3159;52.414;9.784;2024-01-30T15:42:46;11.40;99.90
6252;DHT22;3159;52.414;9.784;2024-01-30T15:45:14;11.30;99.90
6252;DHT22;3159;52.414;9.784;2024-01-30T15:47:41;11.30;99.90
6252;DHT22;3159;52.414;9.784;2024-01-30T15:50:08;11.40;99.90
6252;DHT22;3159;52.414;9.784;2024-01-30T15:52:37;11.40;99.90
6252;DHT22;3159;52.414;9.784;2024-01-30T15:55:04;11.30;99.90
6252;DHT22;3159;52.414;9.784;2024-01-30T15:57:31;11.30;99.90
6252;DHT22;3159;52.414;9.784;2024-01-30T15:59:57;11.30;99.90
6252;DHT22;3159;52.414;9.784;2024-01-30T16:02:26;11.20;99.90
6252;DHT22;3159;52.414;9.784;2024-01-30T16:04:53;11.20;99.90
6252;DHT22;3159;52.414;9.784;2024-01-30T16:07:20;11.20;99.90
6252;DHT22;3159;52.414;9.784;2024-01-30T16:09:47;11.20;99.90
6252;DHT22;3159;52.414;9.784;2024-01-30T16:12:13;11.20;99.90
6252;DHT22;3159;52.414;9.784;2024-01-30T16:14:40;11.20;99.90